Time;durP1;ratioP1;P1;durP2;ratioP2;P2;SDS_P1;SDS_P2;PMS_P1;PMS_P2;Temp;Humidity;BMP_temperature;BMP_pressure;BME280_temperature;BME280_humidity;BME280_pressure;Samples;Min_cycle;Max_cycle;Signal;HPM_P1;HPM_P2
2023/06/20 00:02:11;;;;;;;;;;;;;;;;;;5073758;28;19955;-72
2023/06/20 00:04:37;;;;;;;;;;;;;;;;;;5073071;28;20029;-72
2023/06/20 00:07:03;;;;;;;;;;;;;;;;;;5073546;28;20364;-72
2023/06/20 00:09:29;;;;;;;;;;;;;;;;;;5073293;28;19956;-72
2023/06/20 00:11:55;;;;;;;;;;;;;;;;;;5073008;28;19955;-72
2023/06/20 00:14:21;;;;;;;;;;;;;;;;;;5073007;28;20050;-72
2023/06/20 00:16:47;;;;;;;;;;;;;;;;;;5072935;28;19959;-73
2023/06/20 00:19:13;;;;;;;;;;;;;;;;;;5073235;28;19995;-72
2023/06/20 00:21:40;;;;;;;;;;;;;;;;;;5073007;28;19958;-72
2023/06/20 00:24:09;;;;;;;;;;;;;;;;;;5075113;28;20005;-72
2023/06/20 00:26:35;;;;;;;;;;;;;;;;;;5076779;28;19975;-72
2023/06/20 00:29:01;;;;;;;;;;;;;;;;;;5076848;28;19959;-72
2023/06/20 00:31:27;;;;;;;;;;;;;;;;;;5076358;28;20069;-73
2023/06/20 00:33:53;;;;;;;;;;;;;;;;;;5076305;28;19975;-72
2023/06/20 00:36:25;;;;;;;;;;;;;;;;;;5076648;28;19995;-72
2023/06/20 00:38:51;;;;;;;;;;;;;;;;;;5074793;28;19971;-72
2023/06/20 00:41:16;;;;;;;;;;;;;;;;;;5076827;28;20313;-72
2023/06/20 00:43:42;;;;;;;;;;;;;;;;;;5076118;28;19998;-72
2023/06/20 00:46:08;;;;;;;;;;;;;;;;;;5076085;28;19979;-72
2023/06/20 00:48:34;;;;;;;;;;;;;;;;;;5076668;28;19971;-72
2023/06/20 00:51:00;;;;;;;;;;;;;;;;;;5076065;28;19962;-72
2023/06/20 00:53:26;;;;;;;;;;;;;;;;;;5076866;28;19955;-72
2023/06/20 00:55:52;;;;;;;;;;;;;;;;;;5075960;28;19956;-72
2023/06/20 00:58:18;;;;;;;;;;;;;;;;;;5075967;28;19978;-72
2023/06/20 01:00:44;;;;;;;;;;;;;;;;;;5075908;28;19962;-72
2023/06/20 01:03:11;;;;;;;;;;;;;;;;;;5076157;28;20321;-73
2023/06/20 01:05:37;;;;;;;;;;;;;;;;;;5074499;28;19967;-72
2023/06/20 01:08:03;;;;;;;;;;;;;;;;;;5076015;28;19953;-73
2023/06/20 01:10:29;;;;;;;;;;;;;;;;;;5075952;28;19954;-72
2023/06/20 01:12:55;;;;;;;;;;;;;;;;;;5076197;28;20002;-72
2023/06/20 01:15:21;;;;;;;;;;;;;;;;;;5075596;28;20433;-73
2023/06/20 01:17:47;;;;;;;;;;;;;;;;;;5075584;28;19955;-72
2023/06/20 01:20:13;;;;;;;;;;;;;;;;;;5075481;28;19954;-72
2023/06/20 01:22:38;;;;;;;;;;;;;;;;;;5076041;28;20397;-72
2023/06/20 01:25:05;;;;;;;;;;;;;;;;;;5075380;28;20049;-72
2023/06/20 01:27:33;;;;;;;;;;;;;;;;;;5075333;28;20033;-72
2023/06/20 01:29:59;;;;;;;;;;;;;;;;;;5075320;28;19959;-73
2023/06/20 01:32:25;;;;;;;;;;;;;;;;;;5075604;28;20434;-72
2023/06/20 01:34:51;;;;;;;;;;;;;;;;;;5072790;28;19974;-73
2023/06/20 01:37:17;;;;;;;;;;;;;;;;;;5075436;28;19956;-73
2023/06/20 01:39:43;;;;;;;;;;;;;;;;;;5073863;28;20004;-72
2023/06/20 01:42:09;;;;;;;;;;;;;;;;;;5075407;28;20045;-73
2023/06/20 01:44:35;;;;;;;;;;;;;;;;;;5074647;28;20514;-72
2023/06/20 01:47:01;;;;;;;;;;;;;;;;;;5075480;28;20332;-72
2023/06/20 01:49:26;;;;;;;;;;;;;;;;;;5075253;28;19960;-73
2023/06/20 01:51:55;;;;;;;;;;;;;;;;;;5074920;28;19959;-72
2023/06/20 01:54:21;;;;;;;;;;;;;;;;;;5075447;28;19978;-72
2023/06/20 01:56:47;;;;;;;;;;;;;;;;;;5075351;28;20456;-72
2023/06/20 01:59:13;;;;;;;;;;;;;;;;;;5074778;28;20004;-72
2023/06/20 02:01:42;;;;;;;;;;;;;;;;;;5074686;28;19989;-72
2023/06/20 02:04:07;;;;;;;;;;;;;;;;;;5075223;28;20081;-73
2023/06/20 02:06:33;;;;;;;;;;;;;;;;;;5074839;28;20072;-72
2023/06/20 02:08:59;;;;;;;;;;;;;;;;;;5074569;28;19954;-72
2023/06/20 02:11:25;;;;;;;;;;;;;;;;;;5075031;28;20066;-73
2023/06/20 02:13:51;;;;;;;;;;;;;;;;;;5073214;28;19966;-72
2023/06/20 02:16:17;;;;;;;;;;;;;;;;;;5074988;28;20408;-73
2023/06/20 02:18:43;;;;;;;;;;;;;;;;;;5074697;28;19956;-73
2023/06/20 02:21:09;;;;;;;;;;;;;;;;;;5073028;28;20515;-72
2023/06/20 02:23:35;;;;;;;;;;;;;;;;;;5074281;28;19963;-72
2023/06/20 02:26:01;;;;;;;;;;;;;;;;;;5074729;28;20456;-72
2023/06/20 02:28:27;;;;;;;;;;;;;;;;;;5074533;28;19959;-72
2023/06/20 02:30:53;;;;;;;;;;;;;;;;;;5074141;28;20009;-72
2023/06/20 02:33:19;;;;;;;;;;;;;;;;;;5074094;28;19954;-72
2023/06/20 02:35:45;;;;;;;;;;;;;;;;;;5073985;28;20005;-72
2023/06/20 02:38:11;;;;;;;;;;;;;;;;;;5074567;28;19962;-73
2023/06/20 02:40:36;;;;;;;;;;;;;;;;;;5074253;28;19962;-72
2023/06/20 02:43:02;;;;;;;;;;;;;;;;;;5073754;28;20376;-72
2023/06/20 02:45:28;;;;;;;;;;;;;;;;;;5074069;28;19966;-72
2023/06/20 02:47:54;;;;;;;;;;;;;;;;;;5073645;28;19979;-72
2023/06/20 02:50:20;;;;;;;;;;;;;;;;;;5073859;28;20297;-73
2023/06/20 02:52:46;;;;;;;;;;;;;;;;;;5074366;28;19962;-72
2023/06/20 02:55:12;;;;;;;;;;;;;;;;;;5074050;28;20389;-72
2023/06/20 02:57:38;;;;;;;;;;;;;;;;;;5073772;28;19962;-73
2023/06/20 03:00:09;;;;;;;;;;;;;;;;;;5072487;28;20345;-73
2023/06/20 03:02:35;;;;;;;;;;;;;;;;;;5072516;28;20416;-72
2023/06/20 03:05:01;;;;;;;;;;;;;;;;;;5073657;28;19966;-72
2023/06/20 03:07:26;;;;;;;;;;;;;;;;;;5073857;28;19980;-72
2023/06/20 03:09:52;;;;;;;;;;;;;;;;;;5073870;28;20414;-73
2023/06/20 03:12:18;;;;;;;;;;;;;;;;;;5073887;28;19959;-72
2023/06/20 03:14:44;;;;;;;;;;;;;;;;;;5073852;28;20405;-72
2023/06/20 03:17:10;;;;;;;;;;;;;;;;;;5074091;28;19962;-72
2023/06/20 03:19:36;;;;;;;;;;;;;;;;;;5073516;28;20013;-72
2023/06/20 03:22:02;;;;;;;;;;;;;;;;;;5073791;28;19960;-72
2023/06/20 03:24:28;;;;;;;;;;;;;;;;;;5073478;28;19981;-73
2023/06/20 03:26:54;;;;;;;;;;;;;;;;;;5073403;28;19978;-72
2023/06/20 03:29:19;;;;;;;;;;;;;;;;;;5073717;28;19962;-73
2023/06/20 03:31:45;;;;;;;;;;;;;;;;;;5073417;28;19960;-73
2023/06/20 03:34:11;;;;;;;;;;;;;;;;;;5073558;28;19971;-72
2023/06/20 03:36:38;;;;;;;;;;;;;;;;;;5073430;28;20049;-72
2023/06/20 03:39:04;;;;;;;;;;;;;;;;;;5072170;28;20012;-72
2023/06/20 03:41:29;;;;;;;;;;;;;;;;;;5073322;28;20325;-72
2023/06/20 03:43:55;;;;;;;;;;;;;;;;;;5073068;28;19990;-72
2023/06/20 03:46:21;;;;;;;;;;;;;;;;;;5073189;28;20406;-72
2023/06/20 03:48:47;;;;;;;;;;;;;;;;;;5073262;28;20008;-72
2023/06/20 03:51:13;;;;;;;;;;;;;;;;;;5073498;28;19958;-73
2023/06/20 03:53:39;;;;;;;;;;;;;;;;;;5073703;28;19954;-72
2023/06/20 03:56:05;;;;;;;;;;;;;;;;;;5073193;28;19954;-73
2023/06/20 03:58:31;;;;;;;;;;;;;;;;;;5074527;28;19955;-72
2023/06/20 04:00:57;;;;;;;;;;;;;;;;;;5077295;28;19956;-72
2023/06/20 04:03:23;;;;;;;;;;;;;;;;;;5075666;28;20013;-72
2023/06/20 04:05:48;;;;;;;;;;;;;;;;;;5076908;28;19967;-72
2023/06/20 04:08:14;;;;;;;;;;;;;;;;;;5077459;28;19955;-72
2023/06/20 04:10:40;;;;;;;;;;;;;;;;;;5076856;28;19983;-73
2023/06/20 04:13:06;;;;;;;;;;;;;;;;;;5076786;28;19956;-72
2023/06/20 04:15:32;;;;;;;;;;;;;;;;;;5077023;28;19979;-72
2023/06/20 04:17:58;;;;;;;;;;;;;;;;;;5076961;28;19959;-72
2023/06/20 04:20:24;;;;;;;;;;;;;;;;;;5076693;28;19962;-72
2023/06/20 04:22:50;;;;;;;;;;;;;;;;;;5076640;28;19955;-72
2023/06/20 04:25:16;;;;;;;;;;;;;;;;;;5076589;28;19998;-73
2023/06/20 04:27:41;;;;;;;;;;;;;;;;;;5076733;28;19981;-73
2023/06/20 04:30:07;;;;;;;;;;;;;;;;;;5076471;28;20024;-73
2023/06/20 04:32:33;;;;;;;;;;;;;;;;;;5076511;28;19959;-72
2023/06/20 04:34:59;;;;;;;;;;;;;;;;;;5076315;28;19971;-73
2023/06/20 04:37:25;;;;;;;;;;;;;;;;;;5075029;28;20306;-73
2023/06/20 04:39:51;;;;;;;;;;;;;;;;;;5076617;28;19958;-72
2023/06/20 04:42:17;;;;;;;;;;;;;;;;;;5076249;28;20005;-72
2023/06/20 04:44:44;;;;;;;;;;;;;;;;;;5075787;28;20413;-72
2023/06/20 04:47:12;;;;;;;;;;;;;;;;;;5076152;28;19981;-72
2023/06/20 04:49:40;;;;;;;;;;;;;;;;;;5076126;28;19958;-72
2023/06/20 04:52:05;;;;;;;;;;;;;;;;;;5076693;28;19978;-72
2023/06/20 04:54:31;;;;;;;;;;;;;;;;;;5076517;28;20424;-72
2023/06/20 04:56:57;;;;;;;;;;;;;;;;;;5076023;28;19955;-73
2023/06/20 04:59:23;;;;;;;;;;;;;;;;;;5075962;28;20323;-72
2023/06/20 05:01:51;;;;;;;;;;;;;;;;;;5075921;28;19958;-72
2023/06/20 05:04:17;;;;;;;;;;;;;;;;;;5076169;28;20052;-72
2023/06/20 05:06:43;;;;;;;;;;;;;;;;;;5075756;28;20342;-72
2023/06/20 05:09:09;;;;;;;;;;;;;;;;;;5075611;28;19959;-72
2023/06/20 05:11:35;;;;;;;;;;;;;;;;;;5075748;28;19955;-72
2023/06/20 05:14:00;;;;;;;;;;;;;;;;;;5075949;28;20028;-72
2023/06/20 05:16:26;;;;;;;;;;;;;;;;;;5075631;28;19956;-72
2023/06/20 05:18:52;;;;;;;;;;;;;;;;;;5075618;28;19961;-73
2023/06/20 05:21:18;;;;;;;;;;;;;;;;;;5075604;28;20336;-72
2023/06/20 05:23:44;;;;;;;;;;;;;;;;;;5076093;28;19962;-73
2023/06/20 05:26:10;;;;;;;;;;;;;;;;;;5075695;28;19975;-72
2023/06/20 05:28:37;;;;;;;;;;;;;;;;;;5075483;28;19954;-72
2023/06/20 05:31:03;;;;;;;;;;;;;;;;;;5074148;28;19959;-72
2023/06/20 05:33:29;;;;;;;;;;;;;;;;;;5075922;28;20390;-73
2023/06/20 05:35:55;;;;;;;;;;;;;;;;;;5075166;28;20495;-72
2023/06/20 05:38:21;;;;;;;;;;;;;;;;;;5075235;28;19990;-72
2023/06/20 05:40:46;;;;;;;;;;;;;;;;;;5075136;28;20060;-72
2023/06/20 05:43:12;;;;;;;;;;;;;;;;;;5075263;28;20069;-72
2023/06/20 05:45:38;;;;;;;;;;;;;;;;;;5075333;28;19958;-72
2023/06/20 05:48:04;;;;;;;;;;;;;;;;;;5075281;28;20413;-72
2023/06/20 05:50:33;;;;;;;;;;;;;;;;;;5075579;28;19954;-72
2023/06/20 05:53:00;;;;;;;;;;;;;;;;;;5074138;28;20395;-72
2023/06/20 05:55:25;;;;;;;;;;;;;;;;;;5074881;28;19961;-72
2023/06/20 05:57:51;;;;;;;;;;;;;;;;;;5074821;28;20416;-72
2023/06/20 06:00:17;;;;;;;;;;;;;;;;;;5074761;28;19955;-72
2023/06/20 06:02:46;;;;;;;;;;;;;;;;;;5075275;28;19955;-72
2023/06/20 06:05:12;;;;;;;;;;;;;;;;;;5074656;28;20005;-72
2023/06/20 06:07:38;;;;;;;;;;;;;;;;;;5075078;28;20359;-73
2023/06/20 06:10:04;;;;;;;;;;;;;;;;;;5073581;28;19959;-73
2023/06/20 06:12:30;;;;;;;;;;;;;;;;;;5074506;28;19978;-72
2023/06/20 06:14:56;;;;;;;;;;;;;;;;;;5074456;28;20432;-72
2023/06/20 06:17:22;;;;;;;;;;;;;;;;;;5074696;28;20045;-73
2023/06/20 06:19:48;;;;;;;;;;;;;;;;;;5074383;28;20455;-72
2023/06/20 06:22:14;;;;;;;;;;;;;;;;;;5074397;28;19963;-72
2023/06/20 06:24:40;;;;;;;;;;;;;;;;;;5074249;28;20327;-72
2023/06/20 06:27:07;;;;;;;;;;;;;;;;;;5072946;28;19984;-72
2023/06/20 06:29:33;;;;;;;;;;;;;;;;;;5074521;28;20052;-73
2023/06/20 06:31:59;;;;;;;;;;;;;;;;;;5072849;28;19963;-72
2023/06/20 06:34:26;;;;;;;;;;;;;;;;;;5074249;28;19971;-72
2023/06/20 06:36:52;;;;;;;;;;;;;;;;;;5074133;28;19955;-73
2023/06/20 06:39:18;;;;;;;;;;;;;;;;;;5074332;28;19954;-73
2023/06/20 06:41:43;;;;;;;;;;;;;;;;;;5074031;28;20027;-73
2023/06/20 06:44:09;;;;;;;;;;;;;;;;;;5072468;28;20002;-73
2023/06/20 06:46:35;;;;;;;;;;;;;;;;;;5073860;28;20387;-72
2023/06/20 06:49:02;;;;;;;;;;;;;;;;;;5073849;28;19958;-73
2023/06/20 06:51:28;;;;;;;;;;;;;;;;;;5074004;28;19958;-72
2023/06/20 06:53:54;;;;;;;;;;;;;;;;;;5073784;28;20053;-69
2023/06/20 06:56:20;;;;;;;;;;;;;;;;;;5073095;28;19963;-70
2023/06/20 06:58:46;;;;;;;;;;;;;;;;;;5072992;28;19958;-67
2023/06/20 07:01:12;;;;;;;;;;;;;;;;;;5071834;28;20035;-66
2023/06/20 07:03:38;;;;;;;;;;;;;;;;;;5073754;28;19967;-66
2023/06/20 07:06:03;;;;;;;;;;;;;;;;;;5073787;28;19978;-67
2023/06/20 07:08:29;;;;;;;;;;;;;;;;;;5073109;28;20057;-68
2023/06/20 07:10:55;;;;;;;;;;;;;;;;;;5073610;28;20307;-65
2023/06/20 07:13:21;;;;;;;;;;;;;;;;;;5073557;28;20001;-68
2023/06/20 07:15:47;;;;;;;;;;;;;;;;;;5073067;28;20006;-66
2023/06/20 07:18:13;;;;;;;;;;;;;;;;;;5071686;28;19962;-68
2023/06/20 07:20:39;;;;;;;;;;;;;;;;;;5071915;28;19963;-67
2023/06/20 07:23:05;;;;;;;;;;;;;;;;;;5070287;28;19964;-67
2023/06/20 07:25:31;;;;;;;;;;;;;;;;;;5073525;28;19957;-69
2023/06/20 07:27:57;;;;;;;;;;;;;;;;;;5073631;28;19974;-66
2023/06/20 07:30:23;;;;;;;;;;;;;;;;;;5072563;28;20015;-67
2023/06/20 07:32:49;;;;;;;;;;;;;;;;;;5070394;28;19964;-72
2023/06/20 07:35:15;;;;;;;;;;;;;;;;;;5076816;28;19987;-71
2023/06/20 07:37:41;;;;;;;;;;;;;;;;;;5076143;28;19965;-70
2023/06/20 07:40:09;;;;;;;;;;;;;;;;;;5076839;28;20349;-71
2023/06/20 07:42:35;;;;;;;;;;;;;;;;;;5073494;28;19956;-70
2023/06/20 07:45:01;;;;;;;;;;;;;;;;;;5075778;28;20112;-70
2023/06/20 07:47:27;;;;;;;;;;;;;;;;;;5061190;28;19979;-72
2023/06/20 07:49:53;;;;;;;;;;;;;;;;;;5072905;28;20382;-75
2023/06/20 07:52:19;;;;;;;;;;;;;;;;;;5070963;28;19964;-85
2023/06/20 07:54:45;;;;;;;;;;;;;;;;;;5074667;28;20042;-78
2023/06/20 07:57:11;;;;;;;;;;;;;;;;;;5075906;28;19957;-67
2023/06/20 07:59:37;;;;;;;;;;;;;;;;;;5076009;28;19962;-70
2023/06/20 08:02:03;;;;;;;;;;;;;;;;;;5075518;28;19965;-73
2023/06/20 08:04:28;;;;;;;;;;;;;;;;;;5076482;28;20102;-74
2023/06/20 08:06:54;;;;;;;;;;;;;;;;;;5077307;28;19974;-72
2023/06/20 08:09:20;;;;;;;;;;;;;;;;;;5075984;28;19989;-71
2023/06/20 08:11:46;;;;;;;;;;;;;;;;;;5076179;28;19964;-71
2023/06/20 08:14:12;;;;;;;;;;;;;;;;;;5076811;28;19977;-70
2023/06/20 08:16:38;;;;;;;;;;;;;;;;;;5076340;28;19970;-78
2023/06/20 08:19:04;;;;;;;;;;;;;;;;;;5075553;28;20423;-72
2023/06/20 08:21:30;;;;;;;;;;;;;;;;;;5076445;28;20349;-73
2023/06/20 08:23:56;;;;;;;;;;;;;;;;;;5075851;28;19958;-71
2023/06/20 08:26:22;;;;;;;;;;;;;;;;;;5075091;28;19974;-71
2023/06/20 08:28:47;;;;;;;;;;;;;;;;;;5076193;28;19953;-71
2023/06/20 08:31:16;;;;;;;;;;;;;;;;;;5076082;28;20050;-71
2023/06/20 08:33:42;;;;;;;;;;;;;;;;;;5075741;28;19965;-71
2023/06/20 08:36:08;;;;;;;;;;;;;;;;;;5076395;28;20428;-71
2023/06/20 08:38:34;;;;;;;;;;;;;;;;;;5076334;28;19978;-71
2023/06/20 08:41:01;;;;;;;;;;;;;;;;;;5076356;28;19955;-71
2023/06/20 08:43:29;;;;;;;;;;;;;;;;;;5075884;28;19997;-70
2023/06/20 08:45:55;;;;;;;;;;;;;;;;;;5075954;28;19963;-71
2023/06/20 08:48:21;;;;;;;;;;;;;;;;;;5076115;28;20457;-70
2023/06/20 08:50:48;;;;;;;;;;;;;;;;;;5074793;28;19958;-71
2023/06/20 08:53:14;;;;;;;;;;;;;;;;;;5075299;28;19964;-71
2023/06/20 08:55:40;;;;;;;;;;;;;;;;;;5074940;28;19966;-71
2023/06/20 08:58:05;;;;;;;;;;;;;;;;;;5075680;28;20054;-70
2023/06/20 09:00:31;;;;;;;;;;;;;;;;;;5075230;28;20341;-72
2023/06/20 09:02:57;;;;;;;;;;;;;;;;;;5074762;28;19955;-70
2023/06/20 09:05:23;;;;;;;;;;;;;;;;;;5074629;28;20021;-71
2023/06/20 09:07:49;;;;;;;;;;;;;;;;;;5075390;28;19985;-71
2023/06/20 09:10:15;;;;;;;;;;;;;;;;;;5075469;28;19988;-70
2023/06/20 09:12:41;;;;;;;;;;;;;;;;;;5074883;28;19967;-73
2023/06/20 09:15:07;;;;;;;;;;;;;;;;;;5073541;28;20050;-71
2023/06/20 09:17:33;;;;;;;;;;;;;;;;;;5074921;28;19963;-71
2023/06/20 09:19:59;;;;;;;;;;;;;;;;;;5075202;28;19973;-71
2023/06/20 09:22:25;;;;;;;;;;;;;;;;;;5074680;28;20352;-71
2023/06/20 09:24:51;;;;;;;;;;;;;;;;;;5075114;28;20064;-71
2023/06/20 09:27:17;;;;;;;;;;;;;;;;;;5074840;28;20068;-71
2023/06/20 09:29:43;;;;;;;;;;;;;;;;;;5074914;28;19971;-70
2023/06/20 09:32:09;;;;;;;;;;;;;;;;;;5074889;28;19966;-71
2023/06/20 09:34:34;;;;;;;;;;;;;;;;;;5074865;28;19977;-71
2023/06/20 09:37:00;;;;;;;;;;;;;;;;;;5075252;28;20451;-70
2023/06/20 09:39:26;;;;;;;;;;;;;;;;;;5075074;28;19954;-71
2023/06/20 09:41:53;;;;;;;;;;;;;;;;;;5073378;28;19960;-72
2023/06/20 09:44:19;;;;;;;;;;;;;;;;;;5074773;28;20041;-70
2023/06/20 09:46:45;;;;;;;;;;;;;;;;;;5075260;28;19979;-70
2023/06/20 09:49:11;;;;;;;;;;;;;;;;;;5074431;28;20446;-68
2023/06/20 09:51:37;;;;;;;;;;;;;;;;;;5074124;28;20005;-69
2023/06/20 09:54:03;;;;;;;;;;;;;;;;;;5075490;28;20386;-68
2023/06/20 09:56:28;;;;;;;;;;;;;;;;;;5073785;28;19966;-67
2023/06/20 09:58:54;;;;;;;;;;;;;;;;;;5074397;28;20352;-67
2023/06/20 10:01:20;;;;;;;;;;;;;;;;;;5074023;28;20021;-68
2023/06/20 10:03:47;;;;;;;;;;;;;;;;;;5073962;28;20570;-69
2023/06/20 10:06:12;;;;;;;;;;;;;;;;;;5074378;28;20056;-68
2023/06/20 10:08:38;;;;;;;;;;;;;;;;;;5074079;28;19973;-68
2023/06/20 10:11:04;;;;;;;;;;;;;;;;;;5073884;28;19962;-67
2023/06/20 10:13:30;;;;;;;;;;;;;;;;;;5074063;28;20403;-70
2023/06/20 10:15:59;;;;;;;;;;;;;;;;;;5073737;28;19965;-71
2023/06/20 10:18:25;;;;;;;;;;;;;;;;;;5073969;28;19960;-69
2023/06/20 10:20:51;;;;;;;;;;;;;;;;;;5073892;28;20388;-73
2023/06/20 10:23:20;;;;;;;;;;;;;;;;;;5073674;28;20057;-68
2023/06/20 10:25:46;;;;;;;;;;;;;;;;;;5072900;28;19962;-67
2023/06/20 10:28:12;;;;;;;;;;;;;;;;;;5072831;28;19979;-68
2023/06/20 10:30:38;;;;;;;;;;;;;;;;;;5074123;28;20424;-68
2023/06/20 10:33:04;;;;;;;;;;;;;;;;;;5073171;28;19963;-69
2023/06/20 10:35:29;;;;;;;;;;;;;;;;;;5072959;28;20001;-69
2023/06/20 10:37:55;;;;;;;;;;;;;;;;;;5074041;28;20041;-67
2023/06/20 10:40:21;;;;;;;;;;;;;;;;;;5074360;28;20050;-66
2023/06/20 10:42:47;;;;;;;;;;;;;;;;;;5072380;28;20001;-68
2023/06/20 10:45:13;;;;;;;;;;;;;;;;;;5074290;28;20005;-67
2023/06/20 10:47:39;;;;;;;;;;;;;;;;;;5073838;28;19979;-68
2023/06/20 10:50:05;;;;;;;;;;;;;;;;;;5073877;28;19955;-68
2023/06/20 10:52:31;;;;;;;;;;;;;;;;;;5073885;28;20005;-68
2023/06/20 10:54:57;;;;;;;;;;;;;;;;;;5074647;28;20005;-68
2023/06/20 10:57:22;;;;;;;;;;;;;;;;;;5073778;28;19963;-69
2023/06/20 10:59:48;;;;;;;;;;;;;;;;;;5074062;28;20041;-69
2023/06/20 11:02:14;;;;;;;;;;;;;;;;;;5074040;28;20420;-67
2023/06/20 11:04:40;;;;;;;;;;;;;;;;;;5073755;28;19955;-68
2023/06/20 11:07:06;;;;;;;;;;;;;;;;;;5073989;28;20432;-68
2023/06/20 11:09:32;;;;;;;;;;;;;;;;;;5073985;28;20047;-68
2023/06/20 11:11:58;;;;;;;;;;;;;;;;;;5074238;28;19955;-68
2023/06/20 11:14:24;;;;;;;;;;;;;;;;;;5073616;28;20387;-67
2023/06/20 11:16:50;;;;;;;;;;;;;;;;;;5073599;28;20038;-69
2023/06/20 11:19:15;;;;;;;;;;;;;;;;;;5073627;28;20344;-67
2023/06/20 11:21:41;;;;;;;;;;;;;;;;;;5073525;28;20009;-67
2023/06/20 11:24:07;;;;;;;;;;;;;;;;;;5074080;28;20004;-68
2023/06/20 11:26:33;;;;;;;;;;;;;;;;;;5072116;28;19985;-69
2023/06/20 11:28:59;;;;;;;;;;;;;;;;;;5073508;28;19958;-66
2023/06/20 11:31:25;;;;;;;;;;;;;;;;;;5073743;28;19954;-67
2023/06/20 11:33:51;;;;;;;;;;;;;;;;;;5073353;28;19954;-68
2023/06/20 11:36:17;;;;;;;;;;;;;;;;;;5073944;28;19962;-67
2023/06/20 11:38:42;;;;;;;;;;;;;;;;;;5073405;28;19954;-68
2023/06/20 11:41:08;;;;;;;;;;;;;;;;;;5073912;28;20471;-66
2023/06/20 11:43:34;;;;;;;;;;;;;;;;;;5073134;28;20499;-67
2023/06/20 11:46:00;;;;;;;;;;;;;;;;;;5073248;28;19961;-67
2023/06/20 11:48:26;;;;;;;;;;;;;;;;;;5073575;28;19963;-66
2023/06/20 11:50:52;;;;;;;;;;;;;;;;;;5073551;28;19987;-67
2023/06/20 11:53:18;;;;;;;;;;;;;;;;;;5073239;28;20001;-68
2023/06/20 11:55:44;;;;;;;;;;;;;;;;;;5073996;28;19960;-68
2023/06/20 11:58:11;;;;;;;;;;;;;;;;;;5073232;28;20003;-69
2023/06/20 12:00:37;;;;;;;;;;;;;;;;;;5073458;28;20053;-68
2023/06/20 12:03:04;;;;;;;;;;;;;;;;;;5073444;28;20008;-66
2023/06/20 12:05:29;;;;;;;;;;;;;;;;;;5073151;28;20440;-69
2023/06/20 12:07:55;;;;;;;;;;;;;;;;;;5073585;28;19974;-68
2023/06/20 12:10:24;;;;;;;;;;;;;;;;;;5073433;28;20427;-67
2023/06/20 12:12:50;;;;;;;;;;;;;;;;;;5074147;28;19966;-67
2023/06/20 12:15:15;;;;;;;;;;;;;;;;;;5073083;28;19956;-68
2023/06/20 12:17:41;;;;;;;;;;;;;;;;;;5073327;28;19978;-68
2023/06/20 12:20:07;;;;;;;;;;;;;;;;;;5075226;28;19958;-66
2023/06/20 12:22:33;;;;;;;;;;;;;;;;;;5076636;28;19997;-67
2023/06/20 12:25:00;;;;;;;;;;;;;;;;;;5076611;28;19965;-67
2023/06/20 12:27:26;;;;;;;;;;;;;;;;;;5076829;28;20015;-67
2023/06/20 12:29:52;;;;;;;;;;;;;;;;;;5076752;28;19962;-68
2023/06/20 12:32:18;;;;;;;;;;;;;;;;;;5076531;28;20109;-68
2023/06/20 12:34:44;;;;;;;;;;;;;;;;;;5076551;28;19971;-66
2023/06/20 12:37:10;;;;;;;;;;;;;;;;;;5077017;28;20025;-66
2023/06/20 12:39:36;;;;;;;;;;;;;;;;;;5076647;28;19968;-66
2023/06/20 12:42:01;;;;;;;;;;;;;;;;;;5076603;28;19999;-67
2023/06/20 12:44:27;;;;;;;;;;;;;;;;;;5075900;28;20084;-65
2023/06/20 12:46:53;;;;;;;;;;;;;;;;;;5076465;28;20447;-68
2023/06/20 12:49:20;;;;;;;;;;;;;;;;;;5076202;28;19958;-66
2023/06/20 12:51:46;;;;;;;;;;;;;;;;;;5076452;28;20055;-67
2023/06/20 12:54:12;;;;;;;;;;;;;;;;;;5076655;28;19959;-67
2023/06/20 12:56:38;;;;;;;;;;;;;;;;;;5076368;28;20044;-68
2023/06/20 12:59:04;;;;;;;;;;;;;;;;;;5076602;28;19987;-66
2023/06/20 13:01:30;;;;;;;;;;;;;;;;;;5076003;28;19994;-65
2023/06/20 13:03:56;;;;;;;;;;;;;;;;;;5076286;28;19997;-65
2023/06/20 13:06:23;;;;;;;;;;;;;;;;;;5076594;28;20420;-68
2023/06/20 13:08:48;;;;;;;;;;;;;;;;;;5076156;28;20032;-66
2023/06/20 13:11:14;;;;;;;;;;;;;;;;;;5075793;28;19961;-67
2023/06/20 13:13:40;;;;;;;;;;;;;;;;;;5076046;28;20009;-68
2023/06/20 13:16:07;;;;;;;;;;;;;;;;;;5075991;28;20307;-67
2023/06/20 13:18:33;;;;;;;;;;;;;;;;;;5075971;28;20364;-67
2023/06/20 13:20:59;;;;;;;;;;;;;;;;;;5075627;28;20101;-68
2023/06/20 13:23:25;;;;;;;;;;;;;;;;;;5075884;28;19997;-68
2023/06/20 13:25:51;;;;;;;;;;;;;;;;;;5075489;28;19956;-68
2023/06/20 13:28:17;;;;;;;;;;;;;;;;;;5075401;28;20045;-68
2023/06/20 13:30:43;;;;;;;;;;;;;;;;;;5075393;28;19962;-66
2023/06/20 13:33:08;;;;;;;;;;;;;;;;;;5075706;28;19960;-67
2023/06/20 13:35:34;;;;;;;;;;;;;;;;;;5075277;28;19982;-67
2023/06/20 13:38:00;;;;;;;;;;;;;;;;;;5075339;28;19955;-68
2023/06/20 13:40:30;;;;;;;;;;;;;;;;;;5075773;28;20474;-67
2023/06/20 13:42:56;;;;;;;;;;;;;;;;;;5075216;28;20061;-67
2023/06/20 13:45:22;;;;;;;;;;;;;;;;;;5075459;28;20401;-66
2023/06/20 13:47:48;;;;;;;;;;;;;;;;;;5075328;28;20081;-68
2023/06/20 13:50:14;;;;;;;;;;;;;;;;;;5075070;28;20002;-66
2023/06/20 13:52:40;;;;;;;;;;;;;;;;;;5075547;28;20441;-67
2023/06/20 13:55:06;;;;;;;;;;;;;;;;;;5075696;28;19962;-67
2023/06/20 13:57:32;;;;;;;;;;;;;;;;;;5074885;28;19955;-67
2023/06/20 14:00:00;;;;;;;;;;;;;;;;;;5075153;28;19962;-68
2023/06/20 14:02:26;;;;;;;;;;;;;;;;;;5074791;28;20042;-67
2023/06/20 14:04:55;;;;;;;;;;;;;;;;;;5074995;28;20048;-68
2023/06/20 14:07:22;;;;;;;;;;;;;;;;;;5074866;28;19981;-65
2023/06/20 14:09:48;;;;;;;;;;;;;;;;;;5074955;28;19966;-68
2023/06/20 14:12:14;;;;;;;;;;;;;;;;;;5074597;28;19955;-68
2023/06/20 14:14:40;;;;;;;;;;;;;;;;;;5075119;28;20424;-68
2023/06/20 14:17:06;;;;;;;;;;;;;;;;;;5074513;28;20004;-68
2023/06/20 14:19:34;;;;;;;;;;;;;;;;;;5073152;28;19960;-68
2023/06/20 14:22:00;;;;;;;;;;;;;;;;;;5074688;28;19970;-66
2023/06/20 14:24:25;;;;;;;;;;;;;;;;;;5074604;28;19960;-68
2023/06/20 14:26:51;;;;;;;;;;;;;;;;;;5074832;28;19981;-68
2023/06/20 14:29:17;;;;;;;;;;;;;;;;;;5074298;28;20050;-66
2023/06/20 14:31:43;;;;;;;;;;;;;;;;;;5074752;28;20401;-67
2023/06/20 14:34:09;;;;;;;;;;;;;;;;;;5074120;28;19982;-69
2023/06/20 14:36:37;;;;;;;;;;;;;;;;;;5074166;28;20337;-68
2023/06/20 14:39:03;;;;;;;;;;;;;;;;;;5074120;28;19964;-66
2023/06/20 14:41:29;;;;;;;;;;;;;;;;;;5074602;28;19967;-67
2023/06/20 14:43:55;;;;;;;;;;;;;;;;;;5073648;28;19995;-69
2023/06/20 14:46:21;;;;;;;;;;;;;;;;;;5073901;28;20038;-68
2023/06/20 14:48:48;;;;;;;;;;;;;;;;;;5073956;28;20054;-66
2023/06/20 14:51:14;;;;;;;;;;;;;;;;;;5074002;28;20385;-69
2023/06/20 14:53:42;;;;;;;;;;;;;;;;;;5074265;28;20299;-68
2023/06/20 14:56:08;;;;;;;;;;;;;;;;;;5074319;28;20009;-68
2023/06/20 14:58:34;;;;;;;;;;;;;;;;;;5073826;28;19996;-68
2023/06/20 15:01:00;;;;;;;;;;;;;;;;;;5074059;28;19997;-66
2023/06/20 15:03:26;;;;;;;;;;;;;;;;;;5073800;28;19981;-69
2023/06/20 15:05:52;;;;;;;;;;;;;;;;;;5073741;28;19970;-69
2023/06/20 15:08:18;;;;;;;;;;;;;;;;;;5073638;28;20445;-68
2023/06/20 15:10:43;;;;;;;;;;;;;;;;;;5073655;28;19956;-67
2023/06/20 15:13:09;;;;;;;;;;;;;;;;;;5074184;28;20518;-68
2023/06/20 15:15:35;;;;;;;;;;;;;;;;;;5073910;28;19963;-67
2023/06/20 15:18:01;;;;;;;;;;;;;;;;;;5073599;28;20440;-68
2023/06/20 15:20:28;;;;;;;;;;;;;;;;;;5073567;28;19961;-69
2023/06/20 15:22:54;;;;;;;;;;;;;;;;;;5072072;28;19982;-68
2023/06/20 15:25:20;;;;;;;;;;;;;;;;;;5073508;28;20429;-65
2023/06/20 15:27:46;;;;;;;;;;;;;;;;;;5073710;28;19975;-67
2023/06/20 15:30:13;;;;;;;;;;;;;;;;;;5073482;28;20378;-67
2023/06/20 15:32:39;;;;;;;;;;;;;;;;;;5074590;28;20049;-68
2023/06/20 15:35:05;;;;;;;;;;;;;;;;;;5073478;28;20017;-68
2023/06/20 15:37:31;;;;;;;;;;;;;;;;;;5073428;28;19961;-67
2023/06/20 15:39:58;;;;;;;;;;;;;;;;;;5073667;28;19955;-67
2023/06/20 15:42:24;;;;;;;;;;;;;;;;;;5071884;28;20438;-66
2023/06/20 15:44:50;;;;;;;;;;;;;;;;;;5072949;28;20090;-67
2023/06/20 15:47:16;;;;;;;;;;;;;;;;;;5073160;28;20029;-66
2023/06/20 15:49:42;;;;;;;;;;;;;;;;;;5073579;28;20359;-68
2023/06/20 15:52:07;;;;;;;;;;;;;;;;;;5073281;28;20446;-66
2023/06/20 15:54:33;;;;;;;;;;;;;;;;;;5075168;28;19956;-66
2023/06/20 15:56:59;;;;;;;;;;;;;;;;;;5077792;28;20321;-68
2023/06/20 15:59:25;;;;;;;;;;;;;;;;;;5077451;28;19955;-66
2023/06/20 16:01:51;;;;;;;;;;;;;;;;;;5077684;28;19961;-68
2023/06/20 16:04:17;;;;;;;;;;;;;;;;;;5077924;28;20002;-66
2023/06/20 16:06:43;;;;;;;;;;;;;;;;;;5076996;28;20016;-68
2023/06/20 16:09:09;;;;;;;;;;;;;;;;;;5077298;28;20392;-66
2023/06/20 16:11:35;;;;;;;;;;;;;;;;;;5076912;28;19988;-66
2023/06/20 16:14:01;;;;;;;;;;;;;;;;;;5076876;28;19999;-67
2023/06/20 16:16:27;;;;;;;;;;;;;;;;;;5076852;28;19997;-66
2023/06/20 16:18:53;;;;;;;;;;;;;;;;;;5077047;28;19956;-67
2023/06/20 16:21:19;;;;;;;;;;;;;;;;;;5076734;28;19966;-66
2023/06/20 16:23:45;;;;;;;;;;;;;;;;;;5076695;28;20042;-67
2023/06/20 16:26:11;;;;;;;;;;;;;;;;;;5076881;28;19991;-67
2023/06/20 16:28:36;;;;;;;;;;;;;;;;;;5076597;28;19990;-68
2023/06/20 16:31:02;;;;;;;;;;;;;;;;;;5076561;28;20003;-69
2023/06/20 16:33:28;;;;;;;;;;;;;;;;;;5076783;28;19978;-68
2023/06/20 16:35:57;;;;;;;;;;;;;;;;;;5076413;28;19972;-69
2023/06/20 16:38:23;;;;;;;;;;;;;;;;;;5076486;28;20007;-68